Time;durP1;ratioP1;P1;durP2;ratioP2;P2;SDS_P1;SDS_P2;PMS_P1;PMS_P2;Temp;Humidity;BMP_temperature;BMP_pressure;BME280_temperature;BME280_humidity;BME280_pressure;Samples;Min_cycle;Max_cycle;Signal;HPM_P1;HPM_P2
2021/08/08 00:01:43;;;;;;;9.05;3.90;;;;;;;;;;6270940;22;20031;-83
2021/08/08 00:04:10;;;;;;;7.47;3.35;;;;;;;;;;6271612;22;20073;-83
2021/08/08 00:06:41;;;;;;;4.45;3.30;;;;;;;;;;6246848;22;20024;-83
2021/08/08 00:09:08;;;;;;;5.38;3.67;;;;;;;;;;6274116;22;20211;-83
2021/08/08 00:11:34;;;;;;;7.38;3.35;;;;;;;;;;6271839;22;20028;-82
2021/08/08 00:14:01;;;;;;;5.13;3.40;;;;;;;;;;6274636;22;20561;-83
2021/08/08 00:16:31;;;;;;;9.02;3.65;;;;;;;;;;6249708;22;20023;-82
2021/08/08 00:18:58;;;;;;;5.05;3.25;;;;;;;;;;6273163;22;20410;-82
2021/08/08 00:21:24;;;;;;;5.93;3.80;;;;;;;;;;6281200;22;20339;-82
2021/08/08 00:23:51;;;;;;;6.15;3.50;;;;;;;;;;6255036;22;20122;-82
2021/08/08 00:26:18;;;;;;;5.88;3.80;;;;;;;;;;6254137;22;20307;-82
2021/08/08 00:28:48;;;;;;;6.95;3.28;;;;;;;;;;6248733;22;20180;-82
2021/08/08 00:31:16;;;;;;;8.45;3.50;;;;;;;;;;6274531;22;20085;-81
2021/08/08 00:33:43;;;;;;;6.07;3.60;;;;;;;;;;6274125;22;20035;-82
2021/08/08 00:36:10;;;;;;;4.75;3.55;;;;;;;;;;6245063;22;20103;-82
2021/08/08 00:38:37;;;;;;;5.30;3.35;;;;;;;;;;6242463;23;20323;-83
2021/08/08 00:41:06;;;;;;;5.28;3.47;;;;;;;;;;6247419;23;20059;-82
2021/08/08 00:43:33;;;;;;;4.50;3.80;;;;;;;;;;6254135;23;20051;-83
2021/08/08 00:46:05;;;;;;;5.20;4.00;;;;;;;;;;6251358;23;20406;-83
2021/08/08 00:48:32;;;;;;;10.02;3.92;;;;;;;;;;6230329;23;20289;-82
2021/08/08 00:50:59;;;;;;;6.38;3.97;;;;;;;;;;6228884;23;20024;-83
2021/08/08 00:53:27;;;;;;;7.00;4.45;;;;;;;;;;6223841;23;20099;-82
2021/08/08 00:55:53;;;;;;;4.10;3.70;;;;;;;;;;6219863;23;20421;-83
2021/08/08 00:58:21;;;;;;;6.60;3.95;;;;;;;;;;6219609;23;20028;-83
2021/08/08 01:00:50;;;;;;;6.32;3.80;;;;;;;;;;6245979;23;20090;-82
2021/08/08 01:03:17;;;;;;;5.40;3.85;;;;;;;;;;6219204;23;20036;-83
2021/08/08 01:05:51;;;;;;;6.72;3.80;;;;;;;;;;6244146;23;20060;-82
2021/08/08 01:08:23;;;;;;;6.82;4.50;;;;;;;;;;6221396;23;20048;-83
2021/08/08 01:10:52;;;;;;;5.78;3.88;;;;;;;;;;6233568;23;20171;-82
2021/08/08 01:13:19;;;;;;;7.90;4.20;;;;;;;;;;6265456;22;20016;-82
2021/08/08 01:15:48;;;;;;;7.80;4.65;;;;;;;;;;6219886;23;20050;-82
2021/08/08 01:18:15;;;;;;;11.70;5.57;;;;;;;;;;6243950;23;20294;-82
2021/08/08 01:20:45;;;;;;;9.98;4.68;;;;;;;;;;6244742;23;20481;-82
2021/08/08 01:23:13;;;;;;;6.82;4.35;;;;;;;;;;6220465;23;20054;-83
2021/08/08 01:25:41;;;;;;;8.05;4.32;;;;;;;;;;6218437;23;20095;-82
2021/08/08 01:28:08;;;;;;;11.60;4.00;;;;;;;;;;6219171;23;20030;-82
2021/08/08 01:30:34;;;;;;;9.15;4.40;;;;;;;;;;6247070;23;20024;-82
2021/08/08 01:33:05;;;;;;;8.02;5.05;;;;;;;;;;6245042;23;20042;-82
2021/08/08 01:35:32;;;;;;;8.70;4.38;;;;;;;;;;6267424;22;20024;-82
2021/08/08 01:37:59;;;;;;;9.18;4.10;;;;;;;;;;6248035;22;20035;-82
2021/08/08 01:40:37;;;;;;;6.85;4.10;;;;;;;;;;6275918;22;20037;-82
2021/08/08 01:43:06;;;;;;;6.43;4.05;;;;;;;;;;6248625;22;20054;-82
2021/08/08 01:45:34;;;;;;;9.10;4.28;;;;;;;;;;6247723;22;20023;-82
2021/08/08 01:48:01;;;;;;;6.88;3.83;;;;;;;;;;6248027;22;20106;-82
2021/08/08 01:50:31;;;;;;;7.32;4.28;;;;;;;;;;6272739;22;20062;-82
2021/08/08 01:53:01;;;;;;;13.75;4.63;;;;;;;;;;6272623;22;20031;-82
2021/08/08 01:55:28;;;;;;;9.25;3.90;;;;;;;;;;6246356;22;20031;-82
2021/08/08 01:57:55;;;;;;;8.25;4.38;;;;;;;;;;6248222;22;20171;-82
2021/08/08 02:00:24;;;;;;;11.88;3.92;;;;;;;;;;6247851;22;20377;-82
2021/08/08 02:03:00;;;;;;;10.10;3.53;;;;;;;;;;6248590;22;20034;-82
2021/08/08 02:05:28;;;;;;;8.10;3.45;;;;;;;;;;6274776;22;20020;-82
2021/08/08 02:07:54;;;;;;;8.73;3.78;;;;;;;;;;6275111;22;20038;-82
2021/08/08 02:10:24;;;;;;;8.50;4.47;;;;;;;;;;6277423;22;20031;-82
2021/08/08 02:12:51;;;;;;;7.32;3.92;;;;;;;;;;6274985;22;20059;-82
2021/08/08 02:15:17;;;;;;;7.90;3.90;;;;;;;;;;6283789;22;20068;-82
2021/08/08 02:17:44;;;;;;;6.15;3.60;;;;;;;;;;6288516;22;20070;-82
2021/08/08 02:20:15;;;;;;;6.55;3.83;;;;;;;;;;6278524;22;20020;-82
2021/08/08 02:22:42;;;;;;;6.70;3.67;;;;;;;;;;6248606;22;20023;-82
2021/08/08 02:25:09;;;;;;;6.45;3.65;;;;;;;;;;6253342;22;20024;-81
2021/08/08 02:27:39;;;;;;;9.70;3.80;;;;;;;;;;6287058;22;20019;-81
2021/08/08 02:30:07;;;;;;;8.68;4.10;;;;;;;;;;6251438;22;20031;-82
2021/08/08 02:32:34;;;;;;;5.65;3.30;;;;;;;;;;6248355;22;20134;-82
2021/08/08 02:35:01;;;;;;;6.97;3.60;;;;;;;;;;6293656;22;20015;-82
2021/08/08 02:37:28;;;;;;;8.63;3.45;;;;;;;;;;6298005;22;20042;-82
2021/08/08 02:39:54;;;;;;;6.72;3.50;;;;;;;;;;6253659;22;20055;-82
2021/08/08 02:42:24;;;;;;;5.43;3.42;;;;;;;;;;6248382;22;20032;-81
2021/08/08 02:44:51;;;;;;;8.27;3.58;;;;;;;;;;6249595;22;20026;-82
2021/08/08 02:47:29;;;;;;;10.02;3.65;;;;;;;;;;6249929;22;20028;-82
2021/08/08 02:49:56;;;;;;;7.43;3.97;;;;;;;;;;6277468;22;20024;-81
2021/08/08 02:52:24;;;;;;;6.10;3.83;;;;;;;;;;6278130;22;20099;-81
2021/08/08 02:54:56;;;;;;;8.80;3.50;;;;;;;;;;6252653;22;20264;-81
2021/08/08 02:57:23;;;;;;;6.60;3.92;;;;;;;;;;6254533;22;20023;-81
2021/08/08 02:59:50;;;;;;;6.97;3.40;;;;;;;;;;6280202;22;20170;-81
2021/08/08 03:02:17;;;;;;;9.63;3.28;;;;;;;;;;6251699;22;20220;-81
2021/08/08 03:04:44;;;;;;;7.85;3.20;;;;;;;;;;6277618;22;20039;-80
2021/08/08 03:07:10;;;;;;;8.82;3.53;;;;;;;;;;6251099;22;20030;-80
2021/08/08 03:09:37;;;;;;;6.40;3.47;;;;;;;;;;6251587;22;20028;-80
2021/08/08 03:12:04;;;;;;;7.75;3.60;;;;;;;;;;6278782;22;20081;-80
2021/08/08 03:14:30;;;;;;;6.35;3.45;;;;;;;;;;6276969;22;20023;-80
2021/08/08 03:16:58;;;;;;;8.77;4.30;;;;;;;;;;6251258;22;20042;-81
2021/08/08 03:19:24;;;;;;;11.75;3.67;;;;;;;;;;6275431;22;20374;-81
2021/08/08 03:21:51;;;;;;;8.88;3.30;;;;;;;;;;6250967;22;20174;-81
2021/08/08 03:24:21;;;;;;;6.38;3.30;;;;;;;;;;6250501;22;20028;-81
2021/08/08 03:26:47;;;;;;;12.18;3.47;;;;;;;;;;6250131;22;20102;-81
2021/08/08 03:29:14;;;;;;;6.55;3.38;;;;;;;;;;6278048;22;20111;-81
2021/08/08 03:31:42;;;;;;;5.93;3.20;;;;;;;;;;6249982;22;20103;-81
2021/08/08 03:34:09;;;;;;;10.32;4.13;;;;;;;;;;6250677;22;20086;-83
2021/08/08 03:36:37;;;;;;;6.55;3.70;;;;;;;;;;6251530;22;20039;-83
2021/08/08 03:39:03;;;;;;;5.00;3.20;;;;;;;;;;6278508;22;20024;-82
2021/08/08 03:41:30;;;;;;;10.13;3.45;;;;;;;;;;6276689;22;20369;-82
2021/08/08 03:43:57;;;;;;;13.10;3.72;;;;;;;;;;6250105;22;20034;-82
2021/08/08 03:46:24;;;;;;;6.20;3.08;;;;;;;;;;6274025;22;20032;-82
2021/08/08 03:48:50;;;;;;;10.68;3.83;;;;;;;;;;6251138;22;20302;-82
2021/08/08 03:51:17;;;;;;;5.97;3.70;;;;;;;;;;6277303;22;20177;-82
2021/08/08 03:53:46;;;;;;;7.13;3.75;;;;;;;;;;6275155;22;20034;-82
2021/08/08 03:56:13;;;;;;;14.63;3.55;;;;;;;;;;6277098;22;20023;-82
2021/08/08 03:58:43;;;;;;;4.80;3.55;;;;;;;;;;6252165;22;20059;-85
2021/08/08 04:01:11;;;;;;;11.80;4.55;;;;;;;;;;6251805;22;20028;-85
2021/08/08 04:03:38;;;;;;;9.05;4.60;;;;;;;;;;6277511;22;20020;-85
2021/08/08 04:06:05;;;;;;;15.63;4.95;;;;;;;;;;6252510;22;20573;-85
2021/08/08 04:08:34;;;;;;;9.48;4.70;;;;;;;;;;6253277;22;20071;-83
2021/08/08 04:11:01;;;;;;;7.80;4.82;;;;;;;;;;6279877;22;20024;-84
2021/08/08 04:13:27;;;;;;;12.02;6.07;;;;;;;;;;6253913;22;20035;-85
2021/08/08 04:15:54;;;;;;;10.65;5.65;;;;;;;;;;6279302;22;20062;-85
2021/08/08 04:18:21;;;;;;;8.82;5.32;;;;;;;;;;6251333;22;20027;-84
2021/08/08 04:20:49;;;;;;;7.43;5.88;;;;;;;;;;6281899;22;20027;-85
2021/08/08 04:23:17;;;;;;;10.60;5.65;;;;;;;;;;6254137;22;20023;-85
2021/08/08 04:25:43;;;;;;;9.15;5.40;;;;;;;;;;6289737;22;20047;-85
2021/08/08 04:28:16;;;;;;;10.00;5.55;;;;;;;;;;6263282;22;20132;-84
2021/08/08 04:30:42;;;;;;;9.98;5.22;;;;;;;;;;6256138;22;20047;-84
2021/08/08 04:33:09;;;;;;;14.05;5.40;;;;;;;;;;6255204;22;20023;-84
2021/08/08 04:35:37;;;;;;;13.98;5.50;;;;;;;;;;6255690;22;20034;-85
2021/08/08 04:38:05;;;;;;;8.10;5.78;;;;;;;;;;6307510;22;20363;-85
2021/08/08 04:40:32;;;;;;;10.85;6.53;;;;;;;;;;6282603;22;20410;-84
2021/08/08 04:42:58;;;;;;;12.57;6.50;;;;;;;;;;6256136;22;20027;-84
2021/08/08 04:45:25;;;;;;;10.95;8.20;;;;;;;;;;6252303;22;20055;-84
2021/08/08 04:47:55;;;;;;;10.60;7.88;;;;;;;;;;6264605;22;20026;-84
2021/08/08 04:50:22;;;;;;;19.40;8.82;;;;;;;;;;6280186;22;20117;-84
2021/08/08 04:52:49;;;;;;;15.95;9.30;;;;;;;;;;6251888;22;20027;-86
2021/08/08 04:55:19;;;;;;;13.68;9.30;;;;;;;;;;6278312;22;20028;-84
2021/08/08 04:57:45;;;;;;;10.80;8.93;;;;;;;;;;6253390;22;20067;-84
2021/08/08 05:00:13;;;;;;;14.70;9.95;;;;;;;;;;6252234;22;20419;-84
2021/08/08 05:02:43;;;;;;;17.67;10.23;;;;;;;;;;6250944;22;20070;-84
2021/08/08 05:05:14;;;;;;;18.60;9.50;;;;;;;;;;6280134;22;20019;-84
2021/08/08 05:07:41;;;;;;;12.05;10.10;;;;;;;;;;6252844;22;20024;-84
2021/08/08 05:10:08;;;;;;;17.27;10.68;;;;;;;;;;6252449;22;20024;-84
2021/08/08 05:12:36;;;;;;;14.20;8.88;;;;;;;;;;6269396;22;20035;-84
2021/08/08 05:15:03;;;;;;;13.73;9.73;;;;;;;;;;6272626;22;20008;-83
2021/08/08 05:17:32;;;;;;;13.38;9.85;;;;;;;;;;6298409;22;20314;-84
2021/08/08 05:19:59;;;;;;;13.77;9.85;;;;;;;;;;6271986;22;20039;-84
2021/08/08 05:22:25;;;;;;;14.32;10.00;;;;;;;;;;6270451;22;20011;-84
2021/08/08 05:24:53;;;;;;;11.68;8.43;;;;;;;;;;6290945;22;20055;-83
2021/08/08 05:27:20;;;;;;;16.27;8.93;;;;;;;;;;6263585;22;20023;-84
2021/08/08 05:29:46;;;;;;;14.00;9.15;;;;;;;;;;6277074;22;20023;-84
2021/08/08 05:32:13;;;;;;;11.20;9.82;;;;;;;;;;6251140;22;20035;-84
2021/08/08 05:34:43;;;;;;;14.38;9.32;;;;;;;;;;6268934;22;20035;-84
2021/08/08 05:37:10;;;;;;;11.77;9.43;;;;;;;;;;6222409;23;20051;-84
2021/08/08 05:39:36;;;;;;;12.88;9.70;;;;;;;;;;6265543;22;20012;-84
2021/08/08 05:42:03;;;;;;;12.05;9.38;;;;;;;;;;6268326;22;20026;-84
2021/08/08 05:44:30;;;;;;;15.07;9.27;;;;;;;;;;6242347;22;20028;-84
2021/08/08 05:46:56;;;;;;;10.00;9.00;;;;;;;;;;6232867;22;20028;-84
2021/08/08 05:49:23;;;;;;;10.50;9.00;;;;;;;;;;6224334;23;20107;-84
2021/08/08 05:51:49;;;;;;;10.60;8.65;;;;;;;;;;6250726;23;20059;-84
2021/08/08 05:54:19;;;;;;;10.10;9.02;;;;;;;;;;6234635;22;20044;-83
2021/08/08 05:56:46;;;;;;;13.15;8.63;;;;;;;;;;6242171;22;20012;-84
2021/08/08 05:59:12;;;;;;;11.85;8.15;;;;;;;;;;6223988;23;20325;-84
2021/08/08 06:01:39;;;;;;;12.63;8.65;;;;;;;;;;6245163;23;20107;-84
2021/08/08 06:04:06;;;;;;;10.65;8.73;;;;;;;;;;6220399;23;20398;-84
2021/08/08 06:06:33;;;;;;;15.40;9.35;;;;;;;;;;6220663;23;20024;-85
2021/08/08 06:09:00;;;;;;;13.93;8.90;;;;;;;;;;6220862;23;20449;-83
2021/08/08 06:11:27;;;;;;;10.57;8.73;;;;;;;;;;6219651;23;20059;-84
2021/08/08 06:13:53;;;;;;;14.15;9.18;;;;;;;;;;6246863;23;20025;-84
2021/08/08 06:16:23;;;;;;;14.73;8.98;;;;;;;;;;6246101;23;20321;-83
2021/08/08 06:18:56;;;;;;;12.30;9.25;;;;;;;;;;6219860;23;20396;-83
2021/08/08 06:21:23;;;;;;;14.65;8.95;;;;;;;;;;6244701;23;20028;-83
2021/08/08 06:23:53;;;;;;;16.25;8.40;;;;;;;;;;6217307;23;20024;-82
2021/08/08 06:26:23;;;;;;;12.43;8.85;;;;;;;;;;6243621;23;20024;-82
2021/08/08 06:28:49;;;;;;;11.98;8.52;;;;;;;;;;6220974;23;20447;-82
2021/08/08 06:31:16;;;;;;;11.70;8.48;;;;;;;;;;6224970;23;20020;-82
2021/08/08 06:33:43;;;;;;;12.90;9.43;;;;;;;;;;6250581;23;20020;-82
2021/08/08 06:36:09;;;;;;;11.77;7.03;;;;;;;;;;6280920;22;20020;-82
2021/08/08 06:38:37;;;;;;;10.07;7.13;;;;;;;;;;6254041;22;20039;-82
2021/08/08 06:41:04;;;;;;;12.48;7.35;;;;;;;;;;6279946;22;20316;-82
2021/08/08 06:43:31;;;;;;;8.93;6.65;;;;;;;;;;6251326;22;20023;-82
2021/08/08 06:45:57;;;;;;;10.88;7.10;;;;;;;;;;6252575;22;20051;-82
2021/08/08 06:48:30;;;;;;;15.40;6.57;;;;;;;;;;6281172;22;20019;-82
2021/08/08 06:51:06;;;;;;;11.73;7.45;;;;;;;;;;6256095;22;20142;-82
2021/08/08 06:53:36;;;;;;;10.80;7.22;;;;;;;;;;6250683;22;20030;-82
2021/08/08 06:56:02;;;;;;;11.02;6.82;;;;;;;;;;6251021;22;20029;-82
2021/08/08 07:01:33;;;;;;;9.50;6.53;;;;;;;;;;6274652;22;20028;-82
2021/08/08 07:04:02;;;;;;;9.07;6.32;;;;;;;;;;6247756;22;20034;-82
2021/08/08 07:06:29;;;;;;;11.57;6.47;;;;;;;;;;6250650;22;20086;-82
2021/08/08 07:08:55;;;;;;;14.57;6.13;;;;;;;;;;6248402;22;20032;-82
2021/08/08 07:11:23;;;;;;;9.20;6.43;;;;;;;;;;6255140;22;20018;-82
2021/08/08 07:13:50;;;;;;;10.65;7.03;;;;;;;;;;6267679;22;20020;-82
2021/08/08 07:16:17;;;;;;;10.00;7.32;;;;;;;;;;6295839;22;20038;-82
2021/08/08 07:18:44;;;;;;;12.32;6.28;;;;;;;;;;6267615;22;20078;-82
2021/08/08 07:21:13;;;;;;;10.20;6.75;;;;;;;;;;6288543;22;20024;-82
2021/08/08 07:23:40;;;;;;;10.88;6.97;;;;;;;;;;6253620;22;20469;-81
2021/08/08 07:26:07;;;;;;;18.65;7.63;;;;;;;;;;6280827;22;20433;-82
2021/08/08 07:28:33;;;;;;;14.18;7.75;;;;;;;;;;6251120;22;20547;-81
2021/08/08 07:31:00;;;;;;;11.20;6.60;;;;;;;;;;6277784;22;20080;-82
2021/08/08 07:33:27;;;;;;;16.73;7.15;;;;;;;;;;6250443;22;20028;-81
2021/08/08 07:35:54;;;;;;;12.05;7.78;;;;;;;;;;6250415;22;20067;-82
2021/08/08 07:38:20;;;;;;;12.32;7.80;;;;;;;;;;6277333;22;20028;-81
2021/08/08 07:40:47;;;;;;;12.25;7.72;;;;;;;;;;6276667;22;20118;-82
2021/08/08 07:43:43;;;;;;;17.63;8.40;;;;;;;;;;6253931;22;20050;-82
2021/08/08 07:46:10;;;;;;;16.52;8.57;;;;;;;;;;6276193;22;20081;-81
2021/08/08 07:48:37;;;;;;;14.13;8.13;;;;;;;;;;6275424;22;20027;-81
2021/08/08 07:51:06;;;;;;;17.60;8.25;;;;;;;;;;6275767;22;20024;-81
2021/08/08 07:53:33;;;;;;;16.00;8.15;;;;;;;;;;6253080;22;20457;-81
2021/08/08 07:56:00;;;;;;;13.52;7.32;;;;;;;;;;6263914;22;20042;-81
2021/08/08 07:58:27;;;;;;;13.00;6.85;;;;;;;;;;6263644;22;20136;-81
2021/08/08 08:00:54;;;;;;;14.00;8.25;;;;;;;;;;6264248;22;20024;-81
2021/08/08 08:03:20;;;;;;;21.40;8.32;;;;;;;;;;6263743;22;20027;-83
2021/08/08 08:05:47;;;;;;;17.23;7.45;;;;;;;;;;6258023;22;20023;-81
2021/08/08 08:08:14;;;;;;;20.33;7.50;;;;;;;;;;6274980;22;20043;-81
2021/08/08 08:10:41;;;;;;;14.50;7.55;;;;;;;;;;6251869;22;20023;-82
2021/08/08 08:13:08;;;;;;;16.83;6.50;;;;;;;;;;6252262;22;20090;-82
2021/08/08 08:15:34;;;;;;;18.60;6.43;;;;;;;;;;6262926;22;20018;-82
2021/08/08 08:18:01;;;;;;;19.20;7.22;;;;;;;;;;6294301;22;20027;-83
2021/08/08 08:20:28;;;;;;;15.07;6.43;;;;;;;;;;6257482;22;20032;-83
2021/08/08 08:22:55;;;;;;;11.60;6.10;;;;;;;;;;6255864;22;20043;-82
2021/08/08 08:25:22;;;;;;;13.48;5.72;;;;;;;;;;6256046;22;20188;-82
2021/08/08 08:27:50;;;;;;;19.38;5.57;;;;;;;;;;6265698;22;20035;-82
2021/08/08 08:30:17;;;;;;;12.95;6.28;;;;;;;;;;6282449;22;20075;-82
2021/08/08 08:32:44;;;;;;;19.45;6.00;;;;;;;;;;6285691;22;20019;-82
2021/08/08 08:35:13;;;;;;;18.00;6.93;;;;;;;;;;6288374;22;20024;-81
2021/08/08 08:37:44;;;;;;;18.52;6.88;;;;;;;;;;6289204;22;20247;-82
2021/08/08 08:40:13;;;;;;;15.40;6.28;;;;;;;;;;6275604;22;20031;-83
2021/08/08 08:42:44;;;;;;;11.70;6.25;;;;;;;;;;6248804;22;20047;-82
2021/08/08 08:45:16;;;;;;;19.77;6.95;;;;;;;;;;6247507;22;20081;-82
2021/08/08 08:47:46;;;;;;;19.10;5.28;;;;;;;;;;6243141;22;20027;-81
2021/08/08 08:50:14;;;;;;;15.00;5.40;;;;;;;;;;6246705;22;20371;-81
2021/08/08 08:52:41;;;;;;;17.13;5.68;;;;;;;;;;6245563;22;20046;-81
2021/08/08 08:55:11;;;;;;;14.52;5.13;;;;;;;;;;6246428;22;20050;-82
2021/08/08 08:57:50;;;;;;;12.95;5.15;;;;;;;;;;6247865;22;20197;-82
2021/08/08 09:00:17;;;;;;;18.42;4.38;;;;;;;;;;6273667;22;20020;-82
2021/08/08 09:02:44;;;;;;;13.90;4.45;;;;;;;;;;6246491;22;20457;-83
2021/08/08 09:05:11;;;;;;;9.98;4.22;;;;;;;;;;6274911;22;20054;-82
2021/08/08 09:07:41;;;;;;;18.88;4.97;;;;;;;;;;6277977;22;20023;-83
2021/08/08 09:10:12;;;;;;;12.77;4.47;;;;;;;;;;6249701;22;20032;-83
2021/08/08 09:12:39;;;;;;;8.15;3.63;;;;;;;;;;6292639;22;20027;-83
2021/08/08 09:15:11;;;;;;;15.07;4.75;;;;;;;;;;6267817;22;20327;-82
2021/08/08 09:17:45;;;;;;;14.73;4.72;;;;;;;;;;6253970;22;20019;-82
2021/08/08 09:20:13;;;;;;;14.38;3.90;;;;;;;;;;6275486;22;20090;-83
2021/08/08 09:22:43;;;;;;;14.73;4.53;;;;;;;;;;6246922;22;20073;-83
2021/08/08 09:25:22;;;;;;;13.88;4.20;;;;;;;;;;6246164;22;20024;-82
2021/08/08 09:27:48;;;;;;;15.52;3.90;;;;;;;;;;6273293;22;20075;-82
2021/08/08 09:30:20;;;;;;;8.60;3.35;;;;;;;;;;6246848;22;20110;-83
2021/08/08 09:32:47;;;;;;;14.07;3.85;;;;;;;;;;6274037;22;20024;-83
2021/08/08 09:35:20;;;;;;;13.98;3.15;;;;;;;;;;6261877;22;20062;-83
2021/08/08 09:37:58;;;;;;;21.75;4.10;;;;;;;;;;6275028;22;20031;-83
2021/08/08 09:40:28;;;;;;;12.32;3.25;;;;;;;;;;6274467;22;20058;-84
2021/08/08 09:43:03;;;;;;;14.27;3.08;;;;;;;;;;6248144;22;20348;-84
2021/08/08 09:45:33;;;;;;;15.82;3.55;;;;;;;;;;6275059;22;20034;-84
2021/08/08 09:48:00;;;;;;;13.55;3.53;;;;;;;;;;6272841;22;20173;-84
2021/08/08 09:50:29;;;;;;;17.17;3.55;;;;;;;;;;6272436;22;20283;-84
2021/08/08 09:52:56;;;;;;;9.15;2.50;;;;;;;;;;6271508;22;20024;-83
2021/08/08 09:55:31;;;;;;;14.27;3.65;;;;;;;;;;6245429;22;20251;-83
2021/08/08 09:57:58;;;;;;;10.20;2.85;;;;;;;;;;6274102;22;20024;-84
2021/08/08 10:00:25;;;;;;;9.70;2.30;;;;;;;;;;6245996;22;20079;-83
2021/08/08 10:02:52;;;;;;;12.18;3.50;;;;;;;;;;6246065;22;20023;-84
2021/08/08 10:05:20;;;;;;;10.68;2.65;;;;;;;;;;6275102;22;20030;-85
2021/08/08 10:07:54;;;;;;;8.57;2.20;;;;;;;;;;6271957;22;20056;-84
2021/08/08 10:10:22;;;;;;;14.33;2.87;;;;;;;;;;6272833;22;20219;-84
2021/08/08 10:13:16;;;;;;;11.23;2.35;;;;;;;;;;6246612;22;20024;-84
2021/08/08 10:15:44;;;;;;;8.70;2.20;;;;;;;;;;6244801;22;20035;-84
2021/08/08 10:18:15;;;;;;;13.57;2.33;;;;;;;;;;6246577;22;20298;-84
2021/08/08 10:20:42;;;;;;;11.52;1.95;;;;;;;;;;6246381;22;20333;-85
2021/08/08 10:23:17;;;;;;;8.30;2.13;;;;;;;;;;6248147;22;20047;-85
2021/08/08 10:25:44;;;;;;;8.25;2.30;;;;;;;;;;6245403;22;20098;-85
2021/08/08 10:28:11;;;;;;;11.00;2.72;;;;;;;;;;6245020;22;20024;-84
2021/08/08 10:30:38;;;;;;;9.30;2.25;;;;;;;;;;6275625;22;20024;-85
2021/08/08 10:33:05;;;;;;;12.93;2.50;;;;;;;;;;6277199;22;20028;-85
2021/08/08 10:35:44;;;;;;;8.18;1.95;;;;;;;;;;6275086;22;20023;-85
2021/08/08 10:38:13;;;;;;;11.05;2.75;;;;;;;;;;6248567;22;20078;-84
2021/08/08 10:40:41;;;;;;;8.88;2.47;;;;;;;;;;6244360;22;20248;-82
2021/08/08 10:43:09;;;;;;;5.82;2.00;;;;;;;;;;6272018;22;20030;-82
2021/08/08 10:45:37;;;;;;;8.63;2.03;;;;;;;;;;6245353;22;20405;-82
2021/08/08 10:48:09;;;;;;;10.50;1.90;;;;;;;;;;6243224;22;20034;-82
2021/08/08 10:50:43;;;;;;;9.68;2.55;;;;;;;;;;6244236;22;20024;-82
2021/08/08 10:53:28;;;;;;;8.07;2.50;;;;;;;;;;6244403;22;20023;-82
2021/08/08 10:56:03;;;;;;;6.93;2.13;;;;;;;;;;6242755;22;20024;-83
2021/08/08 10:58:31;;;;;;;6.32;1.77;;;;;;;;;;6243487;22;20111;-83
2021/08/08 11:00:58;;;;;;;5.50;1.85;;;;;;;;;;6241074;22;20348;-84
2021/08/08 11:03:25;;;;;;;8.07;1.85;;;;;;;;;;6240188;22;20058;-83
2021/08/08 11:05:55;;;;;;;6.70;1.80;;;;;;;;;;6268146;22;20024;-83
2021/08/08 11:08:23;;;;;;;12.10;2.00;;;;;;;;;;6241815;22;20537;-84
2021/08/08 11:10:50;;;;;;;7.57;2.47;;;;;;;;;;6268439;22;20428;-84
2021/08/08 11:13:17;;;;;;;8.10;2.17;;;;;;;;;;6269168;22;20059;-83
2021/08/08 11:15:44;;;;;;;9.18;1.85;;;;;;;;;;6250894;22;20039;-83
2021/08/08 11:18:11;;;;;;;13.73;2.22;;;;;;;;;;6264116;22;20023;-84
2021/08/08 11:20:38;;;;;;;11.75;2.47;;;;;;;;;;6262439;22;20207;-83
2021/08/08 11:23:05;;;;;;;9.85;2.30;;;;;;;;;;6249429;22;20027;-84
2021/08/08 11:25:45;;;;;;;7.93;2.15;;;;;;;;;;6275148;22;20526;-84
2021/08/08 11:28:16;;;;;;;14.45;3.05;;;;;;;;;;6262425;22;20199;-84
2021/08/08 11:30:44;;;;;;;6.85;1.75;;;;;;;;;;6286063;22;20124;-84
2021/08/08 11:33:13;;;;;;;10.27;2.53;;;;;;;;;;6274487;22;20424;-84
2021/08/08 11:35:41;;;;;;;8.75;2.28;;;;;;;;;;6247654;22;20256;-83
2021/08/08 11:38:15;;;;;;;14.32;2.85;;;;;;;;;;6245118;22;20378;-84
2021/08/08 11:40:44;;;;;;;9.18;2.25;;;;;;;;;;6245929;22;20047;-83
2021/08/08 11:43:11;;;;;;;10.15;2.42;;;;;;;;;;6244704;22;20031;-83
2021/08/08 11:45:44;;;;;;;10.15;2.65;;;;;;;;;;6272294;22;20063;-83
2021/08/08 11:48:12;;;;;;;9.55;2.60;;;;;;;;;;6244388;22;20031;-84
2021/08/08 11:50:39;;;;;;;11.45;2.53;;;;;;;;;;6253010;22;20103;-84
2021/08/08 11:53:07;;;;;;;7.97;2.17;;;;;;;;;;6269497;22;20162;-82
2021/08/08 11:55:34;;;;;;;9.93;2.53;;;;;;;;;;6270523;22;20023;-84
2021/08/08 11:58:05;;;;;;;9.60;2.17;;;;;;;;;;6241728;22;20023;-84
2021/08/08 12:00:36;;;;;;;6.85;2.55;;;;;;;;;;6244545;22;20043;-85
2021/08/08 12:03:07;;;;;;;12.18;2.15;;;;;;;;;;6242199;22;20078;-84
2021/08/08 12:05:35;;;;;;;7.05;2.20;;;;;;;;;;6271223;22;20059;-83
2021/08/08 12:08:05;;;;;;;8.77;1.80;;;;;;;;;;6243646;22;20161;-87
2021/08/08 12:10:38;;;;;;;10.45;1.92;;;;;;;;;;6270275;22;20020;-83
2021/08/08 12:13:15;;;;;;;11.32;2.22;;;;;;;;;;6243722;22;20024;-83
2021/08/08 12:15:41;;;;;;;5.70;2.38;;;;;;;;;;6245415;22;20485;-84
2021/08/08 12:18:09;;;;;;;10.57;2.50;;;;;;;;;;6244174;22;20050;-84
2021/08/08 12:20:38;;;;;;;6.85;1.77;;;;;;;;;;6247405;22;20230;-84
2021/08/08 12:23:06;;;;;;;6.78;1.77;;;;;;;;;;6245055;22;20084;-84
2021/08/08 12:25:39;;;;;;;7.40;2.05;;;;;;;;;;6270578;22;20313;-83
2021/08/08 12:28:06;;;;;;;6.25;1.42;;;;;;;;;;6244839;22;20043;-84
2021/08/08 12:30:33;;;;;;;14.35;2.45;;;;;;;;;;6265249;22;20039;-83
2021/08/08 12:33:09;;;;;;;7.70;1.92;;;;;;;;;;6266420;22;20035;-83
2021/08/08 12:35:40;;;;;;;7.25;1.65;;;;;;;;;;6247029;22;20437;-84
2021/08/08 12:38:08;;;;;;;5.70;1.65;;;;;;;;;;6270959;22;20034;-84
2021/08/08 12:40:46;;;;;;;7.07;1.75;;;;;;;;;;6271169;22;20051;-84
2021/08/08 12:43:19;;;;;;;9.07;2.20;;;;;;;;;;6273467;22;20023;-85
2021/08/08 12:45:46;;;;;;;8.25;1.98;;;;;;;;;;6256712;22;20071;-84
2021/08/08 12:48:30;;;;;;;8.95;2.03;;;;;;;;;;6285912;22;20027;-84
2021/08/08 12:50:57;;;;;;;6.50;1.70;;;;;;;;;;6286792;22;20014;-83
2021/08/08 12:53:24;;;;;;;6.82;1.63;;;;;;;;;;6284076;22;20086;-83
2021/08/08 12:55:54;;;;;;;9.85;1.60;;;;;;;;;;6261179;22;20027;-83
2021/08/08 12:58:22;;;;;;;8.52;1.73;;;;;;;;;;6279370;22;20027;-83
2021/08/08 13:00:48;;;;;;;5.03;1.70;;;;;;;;;;6251387;22;20043;-84
2021/08/08 13:03:17;;;;;;;9.27;2.03;;;;;;;;;;6248551;22;20031;-84
2021/08/08 13:05:46;;;;;;;10.30;2.00;;;;;;;;;;6247943;22;20046;-83
2021/08/08 13:08:18;;;;;;;4.70;1.48;;;;;;;;;;6244685;22;20023;-83
2021/08/08 13:10:45;;;;;;;7.47;1.38;;;;;;;;;;6243478;22;20071;-84
2021/08/08 13:13:12;;;;;;;8.95;1.75;;;;;;;;;;6255710;22;20016;-84
2021/08/08 13:15:38;;;;;;;10.65;2.03;;;;;;;;;;6262073;22;20034;-83
2021/08/08 13:18:05;;;;;;;9.30;1.60;;;;;;;;;;6261436;22;20017;-84
2021/08/08 13:20:32;;;;;;;5.30;1.38;;;;;;;;;;6286013;22;20213;-84
2021/08/08 13:23:15;;;;;;;8.93;2.03;;;;;;;;;;6274429;22;20024;-84
2021/08/08 13:25:41;;;;;;;8.13;1.63;;;;;;;;;;6286748;22;20231;-84
2021/08/08 13:28:08;;;;;;;7.80;1.75;;;;;;;;;;6258046;22;20101;-84
2021/08/08 13:30:35;;;;;;;7.35;1.77;;;;;;;;;;6283974;22;20023;-84
2021/08/08 13:33:05;;;;;;;8.30;1.63;;;;;;;;;;6253919;22;20024;-84
2021/08/08 13:35:32;;;;;;;7.35;1.70;;;;;;;;;;6247654;22;20068;-84
2021/08/08 13:37:59;;;;;;;8.15;1.42;;;;;;;;;;6272423;22;20208;-84
2021/08/08 13:40:31;;;;;;;7.25;1.95;;;;;;;;;;6273342;22;20083;-84
2021/08/08 13:43:04;;;;;;;6.60;1.70;;;;;;;;;;6245379;22;20046;-84
2021/08/08 13:45:34;;;;;;;5.95;1.60;;;;;;;;;;6244609;22;20358;-85
2021/08/08 13:48:01;;;;;;;9.00;1.90;;;;;;;;;;6243726;22;20024;-84
2021/08/08 13:50:28;;;;;;;10.73;2.00;;;;;;;;;;6273626;22;20031;-84
2021/08/08 13:53:07;;;;;;;6.10;1.73;;;;;;;;;;6252432;22;20086;-84
2021/08/08 13:55:34;;;;;;;7.47;1.73;;;;;;;;;;6245250;22;20063;-84
2021/08/08 13:58:01;;;;;;;6.40;1.60;;;;;;;;;;6243962;22;20350;-85
2021/08/08 14:00:28;;;;;;;6.82;1.63;;;;;;;;;;6269688;22;20027;-85
2021/08/08 14:02:58;;;;;;;3.33;1.65;;;;;;;;;;6240342;22;20204;-85
2021/08/08 14:05:28;;;;;;;7.88;1.85;;;;;;;;;;6269653;22;20019;-85
2021/08/08 14:07:56;;;;;;;7.93;1.48;;;;;;;;;;6250097;22;20024;-84
2021/08/08 14:10:23;;;;;;;5.57;1.75;;;;;;;;;;6271120;22;20444;-84
2021/08/08 14:12:50;;;;;;;8.98;1.33;;;;;;;;;;6272877;22;20027;-84
2021/08/08 14:15:18;;;;;;;9.32;2.08;;;;;;;;;;6273625;22;20329;-84
2021/08/08 14:17:45;;;;;;;9.05;1.60;;;;;;;;;;6284838;22;20109;-84
2021/08/08 14:20:14;;;;;;;7.43;1.50;;;;;;;;;;6311838;22;20023;-84
2021/08/08 14:22:41;;;;;;;7.50;1.98;;;;;;;;;;6248648;22;20032;-84
2021/08/08 14:25:08;;;;;;;8.45;2.45;;;;;;;;;;6272775;22;20062;-84
2021/08/08 14:27:38;;;;;;;10.43;1.90;;;;;;;;;;6253216;22;20023;-84
2021/08/08 14:30:05;;;;;;;7.40;1.48;;;;;;;;;;6258217;22;20103;-84
2021/08/08 14:32:32;;;;;;;10.77;2.10;;;;;;;;;;6246547;22;20024;-84
2021/08/08 14:34:59;;;;;;;6.78;1.25;;;;;;;;;;6244598;22;20157;-85
2021/08/08 14:37:26;;;;;;;9.45;2.33;;;;;;;;;;6244697;22;20024;-84
2021/08/08 14:39:53;;;;;;;5.57;1.50;;;;;;;;;;6270569;22;20047;-84
2021/08/08 14:42:20;;;;;;;6.55;1.58;;;;;;;;;;6267826;22;20292;-84
2021/08/08 14:44:46;;;;;;;9.07;1.95;;;;;;;;;;6244526;22;20078;-84
2021/08/08 14:47:13;;;;;;;6.82;1.70;;;;;;;;;;6242584;22;20027;-84